createdAt,value
2022-12-11T00:00:03.379Z,-0.50
2022-12-11T00:02:31.644Z,-0.40
2022-12-11T00:04:59.638Z,-0.30
2022-12-11T00:07:29.066Z,-0.50
2022-12-11T00:09:57.071Z,-0.30
2022-12-11T00:12:25.324Z,-0.20
2022-12-11T00:14:53.364Z,-0.50
2022-12-11T00:17:21.767Z,-0.50
2022-12-11T00:19:49.796Z,-0.40
2022-12-11T00:22:18.219Z,-0.40
2022-12-11T00:24:47.563Z,-0.30
2022-12-11T00:27:15.605Z,-0.30
2022-12-11T00:29:43.733Z,-0.40
2022-12-11T00:32:11.835Z,-0.30
2022-12-11T00:34:40.293Z,-0.30
2022-12-11T00:37:08.605Z,-0.50
2022-12-11T00:39:38.121Z,-0.40
2022-12-11T00:42:07.682Z,-0.50
2022-12-11T00:44:36.260Z,-0.40
2022-12-11T00:47:04.449Z,-0.60
2022-12-11T00:49:32.868Z,-0.50
2022-12-11T00:52:01.407Z,-0.50
2022-12-11T00:54:29.691Z,-0.50
2022-12-11T00:56:58.078Z,-0.60
2022-12-11T00:59:29.218Z,-0.60
2022-12-11T01:01:57.247Z,-0.50
2022-12-11T01:04:25.578Z,-0.60
2022-12-11T01:06:53.574Z,-0.60
2022-12-11T01:09:38.902Z,-0.60
2022-12-11T01:12:07.181Z,-0.90
2022-12-11T01:14:36.588Z,-0.80
2022-12-11T01:17:04.991Z,-0.60
2022-12-11T01:19:33.354Z,-0.80
2022-12-11T01:22:01.750Z,-1.10
2022-12-11T01:24:29.782Z,-0.80
2022-12-11T01:26:58.166Z,-0.60
2022-12-11T01:29:26.189Z,-0.60
2022-12-11T01:31:55.813Z,-0.80
2022-12-11T01:34:23.863Z,-0.90
2022-12-11T01:36:54.228Z,-0.70
2022-12-11T01:39:22.234Z,-0.90
2022-12-11T01:41:50.493Z,-0.80
2022-12-11T01:44:55.537Z,-0.90
2022-12-11T01:47:25.308Z,-0.70
2022-12-11T01:49:53.557Z,-0.80
2022-12-11T01:52:23.242Z,-0.90
2022-12-11T01:54:52.467Z,-0.70
2022-12-11T01:57:21.697Z,-0.50
2022-12-11T01:59:49.852Z,-0.50
2022-12-11T02:02:22.239Z,-0.70
2022-12-11T02:04:52.005Z,-0.60
2022-12-11T02:07:20.145Z,-0.70
2022-12-11T02:09:49.680Z,-0.90
2022-12-11T02:12:27.492Z,-1.20
2022-12-11T02:15:04.718Z,-1.40
2022-12-11T02:17:39.305Z,-1.00
2022-12-11T02:20:14.985Z,-1.00
2022-12-11T02:23:01.325Z,-1.20
2022-12-11T02:25:34.113Z,-1.30
2022-12-11T02:28:30.806Z,-1.40
2022-12-11T02:31:05.210Z,-1.40
2022-12-11T02:33:38.265Z,-1.40
2022-12-11T02:36:09.320Z,-1.60
2022-12-11T02:38:41.695Z,-1.40
2022-12-11T02:41:12.661Z,-1.20
2022-12-11T02:43:44.501Z,-1.30
2022-12-11T02:46:15.209Z,-1.20
2022-12-11T02:48:44.499Z,-1.40
2022-12-11T02:51:15.319Z,-1.50
2022-12-11T02:53:44.983Z,-1.40
2022-12-11T02:56:18.033Z,-1.40
2022-12-11T02:58:56.834Z,-1.40
2022-12-11T03:01:27.429Z,-1.50
2022-12-11T03:03:56.698Z,-1.40
2022-12-11T03:06:31.634Z,-1.20
2022-12-11T03:09:00.090Z,-1.10
2022-12-11T03:11:28.088Z,-1.10
2022-12-11T03:13:58.267Z,-1.50
2022-12-11T03:16:35.464Z,-1.50
2022-12-11T03:19:12.731Z,-1.60
2022-12-11T03:21:46.688Z,-1.50
2022-12-11T03:24:24.995Z,-1.50
2022-12-11T03:26:58.411Z,-1.30
2022-12-11T03:29:38.021Z,-1.30
2022-12-11T03:32:11.806Z,-1.50
2022-12-11T03:34:44.625Z,-1.20
2022-12-11T03:37:14.658Z,-1.10
2022-12-11T03:39:47.387Z,-1.30
2022-12-11T03:42:17.646Z,-1.40
2022-12-11T03:44:51.217Z,-1.40
2022-12-11T03:47:21.756Z,-1.50
2022-12-11T03:49:51.029Z,-1.50
2022-12-11T03:52:19.975Z,-1.50
2022-12-11T03:54:51.088Z,-1.50
2022-12-11T03:57:22.953Z,-1.40
2022-12-11T03:59:52.366Z,-1.40
2022-12-11T04:02:20.582Z,-1.30
2022-12-11T04:04:48.608Z,-1.20
2022-12-11T04:07:16.642Z,-1.10
2022-12-11T04:09:45.128Z,-1.40
2022-12-11T04:12:13.176Z,-1.50
2022-12-11T04:14:58.566Z,-1.40
2022-12-11T04:17:45.458Z,-1.60
2022-12-11T04:20:31.522Z,-1.50
2022-12-11T04:23:17.375Z,-1.70
2022-12-11T04:25:45.425Z,-1.80
2022-12-11T04:28:13.411Z,-1.70
2022-12-11T04:30:41.799Z,-1.70
2022-12-11T04:33:11.179Z,-1.80
2022-12-11T04:35:39.237Z,-1.80
2022-12-11T04:38:07.224Z,-1.80
2022-12-11T04:40:35.252Z,-1.90
2022-12-11T04:43:03.578Z,-1.90
2022-12-11T04:45:31.578Z,-1.70
2022-12-11T04:47:59.631Z,-1.80
2022-12-11T04:50:29.410Z,-1.90
2022-12-11T04:52:58.113Z,-1.80
2022-12-11T04:55:26.455Z,-1.90
2022-12-11T04:57:54.784Z,-1.80
2022-12-11T05:00:23.140Z,-1.40
2022-12-11T05:02:51.607Z,-1.70
2022-12-11T05:05:19.752Z,-1.80
2022-12-11T05:07:49.437Z,-1.80
2022-12-11T05:10:17.808Z,-1.80
2022-12-11T05:12:46.268Z,-1.90
2022-12-11T05:15:14.315Z,-1.90
2022-12-11T05:17:42.347Z,-1.80
2022-12-11T05:20:11.574Z,-1.60
2022-12-11T05:22:40.186Z,-1.70
2022-12-11T05:25:11.212Z,-1.80
2022-12-11T05:27:39.549Z,-2.00
2022-12-11T05:30:10.140Z,-2.20
2022-12-11T05:32:38.170Z,-2.00
2022-12-11T05:35:07.326Z,-1.60
2022-12-11T05:37:36.055Z,-1.60
2022-12-11T05:40:06.663Z,-1.90
2022-12-11T05:42:36.145Z,-1.70
2022-12-11T05:45:04.910Z,-1.70
2022-12-11T05:47:33.622Z,-1.50
2022-12-11T05:50:01.622Z,-1.50
2022-12-11T05:52:29.947Z,-1.60
2022-12-11T05:54:57.984Z,-1.50
2022-12-11T05:57:26.082Z,-1.20
2022-12-11T05:59:55.692Z,-1.20
2022-12-11T06:02:23.861Z,-1.10
2022-12-11T06:04:51.887Z,-0.90
2022-12-11T06:07:20.302Z,-1.10
2022-12-11T06:09:48.316Z,-1.40
2022-12-11T06:12:16.377Z,-1.50
2022-12-11T06:14:44.900Z,-1.30
2022-12-11T06:17:14.257Z,-1.30
2022-12-11T06:19:42.657Z,-1.20
2022-12-11T06:22:10.688Z,-1.20
2022-12-11T06:24:39.147Z,-1.30
2022-12-11T06:27:07.133Z,-1.30
2022-12-11T06:29:35.721Z,-1.20
2022-12-11T06:32:04.127Z,-1.20
2022-12-11T06:34:33.565Z,-1.30
2022-12-11T06:37:01.568Z,-1.30
2022-12-11T06:39:29.952Z,-1.30
2022-12-11T06:41:58.122Z,-1.40
2022-12-11T06:44:26.145Z,-1.40
2022-12-11T06:46:54.368Z,-1.30
2022-12-11T06:49:22.550Z,-1.40
2022-12-11T06:51:51.954Z,-1.30
2022-12-11T06:54:20.379Z,-1.40
2022-12-11T06:56:48.413Z,-1.40
2022-12-11T06:59:16.778Z,-1.40
2022-12-11T07:01:45.157Z,-1.40
2022-12-11T07:04:13.262Z,-1.40
2022-12-11T07:06:41.784Z,-1.40
2022-12-11T07:09:11.207Z,-1.30
2022-12-11T07:11:39.226Z,-1.40
2022-12-11T07:14:07.431Z,-1.30
2022-12-11T07:16:35.565Z,-1.30
2022-12-11T07:19:03.786Z,-1.30
2022-12-11T07:21:32.312Z,-1.20
2022-12-11T07:24:00.623Z,-1.30
2022-12-11T07:26:30.347Z,-1.30
2022-12-11T07:28:59.144Z,-1.40
2022-12-11T07:31:29.321Z,-1.40
2022-12-11T07:33:58.872Z,-1.50
2022-12-11T07:36:28.766Z,-1.60
2022-12-11T07:38:57.668Z,-1.60
2022-12-11T07:41:27.715Z,-1.60
2022-12-11T07:43:57.479Z,-1.50
2022-12-11T07:46:28.301Z,-1.50
2022-12-11T07:48:56.717Z,-1.40
2022-12-11T07:51:28.055Z,-1.40
2022-12-11T07:53:58.224Z,-1.40
2022-12-11T07:56:27.110Z,-1.50
2022-12-11T07:58:56.762Z,-1.40
2022-12-11T08:01:27.088Z,-1.40
2022-12-11T08:03:56.550Z,-1.40
2022-12-11T08:06:27.984Z,-1.40
2022-12-11T08:08:56.770Z,-1.30
2022-12-11T08:11:25.798Z,-0.90
2022-12-11T08:13:54.210Z,-0.60
2022-12-11T08:16:24.700Z,-0.70
2022-12-11T08:18:53.537Z,-0.70
2022-12-11T08:21:24.132Z,-0.40
2022-12-11T08:23:53.384Z,-0.20
2022-12-11T08:26:23.738Z,0.00
2022-12-11T08:28:51.910Z,-0.20
2022-12-11T08:31:20.489Z,-0.40
2022-12-11T08:33:50.536Z,-0.40
2022-12-11T08:36:21.351Z,-0.20
2022-12-11T08:38:50.252Z,0.00
2022-12-11T08:41:20.633Z,0.30
2022-12-11T08:43:49.274Z,0.60
2022-12-11T08:46:17.749Z,0.70
2022-12-11T08:48:45.840Z,0.80
2022-12-11T08:51:17.570Z,0.80
2022-12-11T08:53:46.136Z,0.80
2022-12-11T08:56:16.271Z,1.00
2022-12-11T08:58:45.020Z,1.20
2022-12-11T09:01:15.777Z,1.40
2022-12-11T09:03:43.920Z,1.60
2022-12-11T09:06:15.329Z,1.80
2022-12-11T09:08:50.195Z,2.10
2022-12-11T09:11:22.426Z,2.10
2022-12-11T09:13:50.659Z,2.40
2022-12-11T09:16:22.065Z,2.60
2022-12-11T09:18:51.640Z,2.70
2022-12-11T09:21:23.372Z,2.40
2022-12-11T09:23:54.568Z,2.90
2022-12-11T09:26:22.804Z,2.40
2022-12-11T09:28:53.307Z,2.50
2022-12-11T09:31:24.529Z,3.10
2022-12-11T09:33:54.883Z,2.60
2022-12-11T09:36:25.133Z,3.10
2022-12-11T09:38:54.023Z,2.30
2022-12-11T09:41:32.929Z,2.40
2022-12-11T09:44:07.853Z,2.60
2022-12-11T09:46:37.597Z,3.10
2022-12-11T09:49:12.226Z,3.20
2022-12-11T09:51:45.748Z,2.70
2022-12-11T09:54:15.047Z,3.00
2022-12-11T09:56:51.258Z,2.90
2022-12-11T09:59:28.949Z,2.40
2022-12-11T10:02:04.725Z,2.10
2022-12-11T10:04:41.204Z,2.80
2022-12-11T10:07:16.425Z,3.00
2022-12-11T10:09:52.712Z,3.40
2022-12-11T10:12:34.387Z,2.60
2022-12-11T10:15:35.694Z,3.20
2022-12-11T10:18:08.223Z,2.60
2022-12-11T10:20:40.151Z,1.90
2022-12-11T10:23:17.004Z,2.50
2022-12-11T10:25:50.969Z,3.10
2022-12-11T10:28:20.970Z,2.60
2022-12-11T10:30:55.801Z,1.90
2022-12-11T10:33:28.437Z,1.80
2022-12-11T10:35:57.983Z,2.40
2022-12-11T10:38:31.753Z,2.70
2022-12-11T10:41:02.562Z,3.10
2022-12-11T10:43:35.974Z,3.30
2022-12-11T10:46:05.809Z,3.50
2022-12-11T10:48:34.057Z,2.40
2022-12-11T10:51:04.926Z,2.00
2022-12-11T10:53:35.456Z,2.60
2022-12-11T10:56:04.291Z,2.60
2022-12-11T10:58:34.463Z,2.80
2022-12-11T11:01:16.215Z,3.40
2022-12-11T11:03:55.126Z,3.30
2022-12-11T11:06:24.186Z,3.30
2022-12-11T11:08:55.337Z,3.00
2022-12-11T11:11:30.325Z,3.20
2022-12-11T11:14:14.320Z,3.40
2022-12-11T11:16:44.640Z,3.10
2022-12-11T11:19:21.673Z,3.60
2022-12-11T11:21:53.400Z,3.50
2022-12-11T11:24:30.971Z,2.70
2022-12-11T11:27:14.704Z,3.20
2022-12-11T11:29:43.130Z,2.80
2022-12-11T11:32:20.909Z,3.30
2022-12-11T11:34:48.965Z,3.60
2022-12-11T11:37:26.542Z,3.90
2022-12-11T11:40:00.306Z,3.80
2022-12-11T11:42:38.586Z,2.60
2022-12-11T11:45:13.870Z,3.10
2022-12-11T11:47:51.066Z,3.70
2022-12-11T11:50:23.276Z,3.80
2022-12-11T11:52:57.230Z,3.90
2022-12-11T11:55:38.600Z,4.10
2022-12-11T11:58:14.717Z,4.20
2022-12-11T12:00:43.948Z,4.10
2022-12-11T12:03:15.230Z,3.70
2022-12-11T12:05:50.306Z,4.00
2022-12-11T12:08:28.370Z,3.20
2022-12-11T12:11:04.055Z,2.30
2022-12-11T12:13:49.667Z,2.30
2022-12-11T12:16:51.740Z,1.40
2022-12-11T12:19:24.261Z,2.20
2022-12-11T12:21:53.993Z,3.20
2022-12-11T12:24:35.398Z,3.70
2022-12-11T12:27:50.040Z,3.90
2022-12-11T12:30:06.813Z,3.90
2022-12-11T12:32:45.624Z,3.90
2022-12-11T12:35:23.961Z,3.40
2022-12-11T12:37:59.841Z,3.70
2022-12-11T12:40:33.448Z,3.70
2022-12-11T12:43:24.228Z,3.60
2022-12-11T12:46:00.657Z,3.60
2022-12-11T12:48:29.553Z,3.50
2022-12-11T12:50:58.810Z,3.40
2022-12-11T12:53:30.561Z,3.30
2022-12-11T12:55:59.607Z,3.20
2022-12-11T12:58:30.955Z,2.70
2022-12-11T13:01:09.551Z,2.70
2022-12-11T13:03:50.069Z,2.30
2022-12-11T13:06:31.001Z,2.20
2022-12-11T13:09:00.111Z,2.40
2022-12-11T13:11:35.062Z,2.20
2022-12-11T13:14:08.073Z,2.30
2022-12-11T13:16:38.712Z,2.20
2022-12-11T13:19:18.485Z,2.10
2022-12-11T13:21:57.480Z,2.10
2022-12-11T13:24:29.996Z,2.00
2022-12-11T13:26:58.272Z,1.70
2022-12-11T13:29:32.685Z,1.70
2022-12-11T13:32:03.221Z,1.50
2022-12-11T13:34:34.294Z,1.70
2022-12-11T13:37:04.230Z,1.70
2022-12-11T13:39:35.403Z,1.80
2022-12-11T13:42:06.332Z,1.60
2022-12-11T13:44:40.228Z,1.50
2022-12-11T13:47:15.339Z,1.60
2022-12-11T13:49:47.199Z,1.70
2022-12-11T13:52:20.639Z,1.50
2022-12-11T13:54:50.841Z,1.40
2022-12-11T13:57:21.902Z,1.40
2022-12-11T13:59:53.746Z,1.60
2022-12-11T14:02:27.016Z,2.00
2022-12-11T14:04:58.404Z,2.00
2022-12-11T14:07:29.110Z,1.90
2022-12-11T14:10:02.329Z,1.80
2022-12-11T14:12:32.213Z,1.90
2022-12-11T14:15:04.012Z,2.10
2022-12-11T14:17:33.988Z,1.90
2022-12-11T14:20:07.421Z,1.90
2022-12-11T14:22:35.780Z,1.90
2022-12-11T14:25:18.176Z,1.60
2022-12-11T14:27:50.109Z,1.60
2022-12-11T14:30:27.763Z,1.70
2022-12-11T14:32:59.720Z,1.60
2022-12-11T14:35:34.256Z,1.70
2022-12-11T14:38:12.789Z,1.60
2022-12-11T14:40:46.192Z,1.40
2022-12-11T14:43:21.556Z,1.40
2022-12-11T14:45:55.182Z,1.40
2022-12-11T14:48:28.145Z,1.50
2022-12-11T14:50:59.973Z,1.40
2022-12-11T14:53:33.545Z,1.60
2022-12-11T14:56:04.078Z,1.50
2022-12-11T14:58:34.451Z,1.50
2022-12-11T15:01:06.207Z,1.60
2022-12-11T15:03:36.511Z,1.70
2022-12-11T15:06:26.208Z,1.70
2022-12-11T15:08:54.705Z,1.90
2022-12-11T15:11:24.561Z,2.00
2022-12-11T15:13:55.733Z,2.10
2022-12-11T15:16:28.405Z,2.10
2022-12-11T15:18:58.963Z,2.00
2022-12-11T15:21:31.325Z,2.00
2022-12-11T15:24:01.072Z,1.90
2022-12-11T15:26:36.294Z,1.80
2022-12-11T15:29:07.327Z,1.80
2022-12-11T15:31:37.033Z,1.80
2022-12-11T15:34:05.494Z,1.70
2022-12-11T15:36:36.756Z,1.40
2022-12-11T15:39:08.928Z,1.20
2022-12-11T15:41:37.477Z,1.00
2022-12-11T15:44:05.845Z,0.80
2022-12-11T15:46:38.540Z,0.80
2022-12-11T15:49:13.509Z,0.60
2022-12-11T15:51:43.378Z,0.60
2022-12-11T15:54:11.727Z,0.60
2022-12-11T15:56:40.032Z,0.40
2022-12-11T15:59:08.538Z,0.30
2022-12-11T16:01:38.021Z,0.20
2022-12-11T16:04:06.195Z,0.10
2022-12-11T16:06:34.593Z,0.40
2022-12-11T16:09:04.137Z,0.40
2022-12-11T16:11:32.127Z,0.20
2022-12-11T16:14:03.502Z,0.20
2022-12-11T16:16:31.838Z,0.10
2022-12-11T16:19:01.540Z,0.00
2022-12-11T16:21:29.600Z,0.20
2022-12-11T16:23:57.577Z,0.40
2022-12-11T16:26:25.580Z,0.40
2022-12-11T16:28:53.599Z,0.30
2022-12-11T16:31:21.861Z,0.20
2022-12-11T16:33:49.923Z,-0.30
2022-12-11T16:36:20.589Z,-0.10
2022-12-11T16:38:53.997Z,0.10
2022-12-11T16:41:23.009Z,0.00
2022-12-11T16:43:51.475Z,0.10
2022-12-11T16:46:20.577Z,0.20
2022-12-11T16:48:48.880Z,0.30
2022-12-11T16:51:17.362Z,0.30
2022-12-11T16:53:47.274Z,0.30
2022-12-11T16:56:15.590Z,0.20
2022-12-11T16:58:43.589Z,0.30
2022-12-11T17:01:13.866Z,0.40
2022-12-11T17:03:43.202Z,0.60
2022-12-11T17:06:13.414Z,0.70
2022-12-11T17:08:42.781Z,0.60
2022-12-11T17:11:14.477Z,0.80
2022-12-11T17:13:43.008Z,0.60
2022-12-11T17:16:13.555Z,0.70
2022-12-11T17:18:42.322Z,0.80
2022-12-11T17:21:12.629Z,0.80
2022-12-11T17:23:41.163Z,0.80
2022-12-11T17:26:09.974Z,0.90
2022-12-11T17:28:39.934Z,0.80
2022-12-11T17:31:09.608Z,0.80
2022-12-11T17:33:37.767Z,0.90
2022-12-11T17:36:07.736Z,0.80
2022-12-11T17:38:36.278Z,0.90
2022-12-11T17:41:06.986Z,0.80
2022-12-11T17:43:35.097Z,0.80
2022-12-11T17:46:06.629Z,0.80
2022-12-11T17:48:34.976Z,0.80
2022-12-11T17:51:04.924Z,0.80
2022-12-11T17:53:33.564Z,0.70
2022-12-11T17:56:02.085Z,0.70
2022-12-11T17:58:30.827Z,0.60
2022-12-11T18:00:59.987Z,0.80
2022-12-11T18:03:29.928Z,0.70
2022-12-11T18:06:03.760Z,0.80
2022-12-11T18:08:31.866Z,0.80
2022-12-11T18:11:06.348Z,0.80
2022-12-11T18:13:34.620Z,0.80
2022-12-11T18:16:04.636Z,0.80
2022-12-11T18:18:34.124Z,0.80
2022-12-11T18:21:02.380Z,0.70
2022-12-11T18:23:30.453Z,0.70
2022-12-11T18:25:58.673Z,0.70
2022-12-11T18:28:26.729Z,0.70
2022-12-11T18:30:54.780Z,0.60
2022-12-11T18:33:23.050Z,0.60
2022-12-11T18:35:52.483Z,0.50
2022-12-11T18:38:20.487Z,0.50
2022-12-11T18:40:48.588Z,0.40
2022-12-11T18:43:16.642Z,0.40
2022-12-11T18:45:46.004Z,0.30
2022-12-11T18:48:14.322Z,0.30
2022-12-11T18:50:46.488Z,0.30
2022-12-11T18:53:16.229Z,0.20
2022-12-11T18:55:44.829Z,0.10
2022-12-11T18:58:13.938Z,0.00
2022-12-11T19:00:43.386Z,0.10
2022-12-11T19:03:13.696Z,0.10
2022-12-11T19:05:43.934Z,0.20
2022-12-11T19:08:16.300Z,0.10
2022-12-11T19:10:48.769Z,0.10
2022-12-11T19:13:16.949Z,0.10
2022-12-11T19:15:45.937Z,0.10
2022-12-11T19:18:15.284Z,0.10
2022-12-11T19:20:57.719Z,-0.10
2022-12-11T19:23:31.957Z,-0.20
2022-12-11T19:26:01.387Z,-0.20
2022-12-11T19:28:29.418Z,-0.30
2022-12-11T19:30:57.580Z,-0.10
2022-12-11T19:33:25.693Z,-0.10
2022-12-11T19:36:02.608Z,-0.10
2022-12-11T19:38:30.745Z,-0.20
2022-12-11T19:40:58.806Z,-0.40
2022-12-11T19:43:28.532Z,-0.50
2022-12-11T19:45:56.524Z,-0.50
2022-12-11T19:48:24.537Z,-0.50
2022-12-11T19:50:52.627Z,-0.50
2022-12-11T19:53:20.698Z,-0.60
2022-12-11T19:55:51.772Z,-0.70
2022-12-11T19:58:20.870Z,-0.70
2022-12-11T20:00:50.335Z,-0.70
2022-12-11T20:03:18.496Z,-0.80
2022-12-11T20:05:46.672Z,-0.70
2022-12-11T20:08:42.800Z,-0.70
2022-12-11T20:11:06.039Z,-0.80
2022-12-11T20:13:34.126Z,-0.80
2022-12-11T20:16:06.678Z,-0.90
2022-12-11T20:18:35.224Z,-0.90
2022-12-11T20:21:04.814Z,-0.90
2022-12-11T20:23:33.542Z,-1.00
2022-12-11T20:26:06.523Z,-1.30
2022-12-11T20:28:34.566Z,-1.30
2022-12-11T20:31:06.799Z,-1.20
2022-12-11T20:33:35.199Z,-1.20
2022-12-11T20:36:07.287Z,-1.20
2022-12-11T20:38:36.081Z,-1.30
2022-12-11T20:41:04.413Z,-1.30
2022-12-11T20:43:32.448Z,-1.40
2022-12-11T20:46:00.568Z,-1.30
2022-12-11T20:48:30.048Z,-1.40
2022-12-11T20:51:00.979Z,-1.60
2022-12-11T20:53:29.534Z,-1.50
2022-12-11T20:55:57.779Z,-1.50
2022-12-11T20:58:25.859Z,-1.50
2022-12-11T21:00:54.052Z,-1.60
2022-12-11T21:03:22.160Z,-1.50
2022-12-11T21:05:51.727Z,-1.60
2022-12-11T21:08:19.750Z,-1.60
2022-12-11T21:10:47.854Z,-1.60
2022-12-11T21:13:16.783Z,-1.80
2022-12-11T21:15:44.928Z,-1.80
2022-12-11T21:18:12.968Z,-1.70
2022-12-11T21:20:41.499Z,-1.70
2022-12-11T21:23:10.913Z,-1.80
2022-12-11T21:25:40.563Z,-1.70
2022-12-11T21:28:09.413Z,-1.70
2022-12-11T21:30:41.264Z,-1.80
2022-12-11T21:33:09.340Z,-1.80
2022-12-11T21:35:37.498Z,-1.90
2022-12-11T21:38:05.550Z,-1.90
2022-12-11T21:40:35.574Z,-1.90
2022-12-11T21:43:03.667Z,-1.80
2022-12-11T21:48:24.169Z,-1.80
2022-12-11T21:50:52.205Z,-1.80
2022-12-11T21:53:20.211Z,-1.90
2022-12-11T21:55:50.065Z,-1.90
2022-12-11T21:58:18.057Z,-1.90
2022-12-11T22:00:46.930Z,-1.90
2022-12-11T22:03:15.067Z,-1.90
2022-12-11T22:05:43.098Z,-1.90
2022-12-11T22:08:11.145Z,-1.90
2022-12-11T22:10:39.165Z,-2.00
2022-12-11T22:13:09.049Z,-2.00
2022-12-11T22:15:37.123Z,-1.90
2022-12-11T22:18:05.409Z,-1.90
2022-12-11T22:20:33.802Z,-1.70
2022-12-11T22:23:01.836Z,-1.70
2022-12-11T22:25:30.673Z,-1.70
2022-12-11T22:27:58.657Z,-1.80
2022-12-11T22:30:28.351Z,-1.80
2022-12-11T22:32:56.460Z,-1.80
2022-12-11T22:35:27.307Z,-1.90
2022-12-11T22:37:55.917Z,-2.60
2022-12-11T22:40:23.974Z,-2.40
2022-12-11T22:42:52.435Z,-2.20
2022-12-11T22:45:20.766Z,-2.10
2022-12-11T22:47:50.541Z,-2.10
2022-12-11T22:50:18.830Z,-2.10
2022-12-11T22:52:47.107Z,-2.10
2022-12-11T22:55:15.188Z,-2.10
2022-12-11T22:57:43.349Z,-2.00
2022-12-11T23:00:13.745Z,-1.90
2022-12-11T23:02:43.207Z,-1.90
2022-12-11T23:05:13.135Z,-1.90
2022-12-11T23:07:41.799Z,-2.00
2022-12-11T23:10:11.674Z,-2.00
2022-12-11T23:12:40.011Z,-1.90
2022-12-11T23:15:09.243Z,-2.00
2022-12-11T23:17:37.892Z,-1.90
2022-12-11T23:20:07.514Z,-2.10
2022-12-11T23:22:37.249Z,-2.10
2022-12-11T23:25:05.780Z,-2.10
2022-12-11T23:27:34.124Z,-2.00
2022-12-11T23:30:02.196Z,-2.10
2022-12-11T23:32:30.169Z,-1.90
2022-12-11T23:34:58.584Z,-1.90
2022-12-11T23:37:26.581Z,-2.00
2022-12-11T23:39:56.257Z,-1.80
2022-12-11T23:42:24.292Z,-1.80
2022-12-11T23:44:52.301Z,-1.80
2022-12-11T23:47:20.350Z,-2.00
2022-12-11T23:49:48.347Z,-1.80
2022-12-11T23:52:16.403Z,-1.70
2022-12-11T23:54:44.411Z,-1.70
2022-12-11T23:57:14.123Z,-1.60
2022-12-11T23:59:42.127Z,-1.60
